Time;durP1;ratioP1;P1;durP2;ratioP2;P2;SDS_P1;SDS_P2;PMS_P1;PMS_P2;Temp;Humidity;BMP_temperature;BMP_pressure;BME280_temperature;BME280_humidity;BME280_pressure;Samples;Min_cycle;Max_cycle;Signal;HPM_P1;HPM_P2
2022/08/31 00:06:00;;;;;;;5.05;1.00;;;;;;;17.69;100.00;100953.34;7389562;19;20022;-79
2022/08/31 00:08:28;;;;;;;14.65;0.73;;;;;;;17.55;100.00;100945.75;7388779;19;20483;-78
2022/08/31 00:10:54;;;;;;;6.30;0.38;;;;;;;17.39;100.00;100946.31;7389261;19;20093;-78
2022/08/31 00:13:22;;;;;;;1.40;0.98;;;;;;;17.46;100.00;100945.88;7389338;19;20088;-79
2022/08/31 00:15:49;;;;;;;0.68;0.22;;;;;;;17.48;100.00;100932.09;7387766;19;20117;-79
2022/08/31 00:18:17;;;;;;;0.77;0.77;;;;;;;17.43;100.00;100938.44;7385407;19;20015;-79
2022/08/31 00:20:45;;;;;;;8.10;0.80;;;;;;;17.43;100.00;100944.09;7384871;19;20074;-78
2022/08/31 00:23:13;;;;;;;1.15;0.68;;;;;;;17.46;100.00;100948.69;7386305;19;20413;-78
2022/08/31 00:25:42;;;;;;;0.82;0.38;;;;;;;17.44;100.00;100945.63;7387439;19;20042;-78
2022/08/31 00:28:10;;;;;;;0.75;0.60;;;;;;;17.57;100.00;100951.66;7388771;19;20090;-78
2022/08/31 00:30:36;;;;;;;0.65;0.43;;;;;;;17.64;100.00;100948.41;7388716;19;20106;-79
2022/08/31 00:33:04;;;;;;;0.32;0.30;;;;;;;17.71;100.00;100947.19;7386680;19;20010;-78
2022/08/31 00:35:34;;;;;;;2.35;0.57;;;;;;;17.70;100.00;100949.22;7386478;19;20574;-78
2022/08/31 00:38:02;;;;;;;0.38;0.25;;;;;;;17.66;100.00;100945.88;7385265;19;20026;-78
2022/08/31 00:40:29;;;;;;;1.45;0.57;;;;;;;17.75;100.00;100942.09;7382891;19;20022;-78
2022/08/31 00:42:55;;;;;;;0.43;0.43;;;;;;;17.63;100.00;100938.41;7383297;19;20021;-78
2022/08/31 00:45:22;;;;;;;0.20;0.20;;;;;;;17.78;100.00;100930.59;7386077;19;20061;-78
2022/08/31 00:47:48;;;;;;;1.23;0.70;;;;;;;17.78;100.00;100936.22;7385765;19;20019;-79
2022/08/31 00:50:17;;;;;;;1.88;0.88;;;;;;;17.89;100.00;100935.56;7386765;19;20392;-79
2022/08/31 00:52:49;;;;;;;3.05;0.40;;;;;;;17.93;100.00;100942.50;7391984;19;20035;-79
2022/08/31 00:55:25;;;;;;;1.63;0.38;;;;;;;17.93;100.00;100939.69;7386938;19;20018;-79
2022/08/31 00:57:54;;;;;;;6.15;0.57;;;;;;;17.82;100.00;100939.59;7385453;19;20468;-78
2022/08/31 01:00:24;;;;;;;0.75;0.65;;;;;;;17.82;100.00;100939.59;7386807;19;20476;-78
2022/08/31 01:02:51;;;;;;;0.43;0.38;;;;;;;17.79;100.00;100943.44;7387776;19;20042;-78
2022/08/31 01:05:18;;;;;;;1.17;0.30;;;;;;;17.91;100.00;100949.94;7385867;19;20070;-78
2022/08/31 01:07:49;;;;;;;1.90;0.90;;;;;;;17.88;100.00;100946.06;7383197;19;20018;-78
2022/08/31 01:10:19;;;;;;;1.45;0.20;;;;;;;18.25;100.00;100950.97;7385167;19;20023;-78
2022/08/31 01:12:47;;;;;;;0.70;0.70;;;;;;;18.39;100.00;100950.78;7385048;19;20019;-77
2022/08/31 01:15:15;;;;;;;3.05;0.52;;;;;;;18.64;100.00;100952.78;7384527;19;20015;-79
2022/08/31 01:17:43;;;;;;;2.95;0.57;;;;;;;18.37;100.00;100944.88;7382545;19;20039;-79
2022/08/31 01:20:24;;;;;;;0.75;0.30;;;;;;;18.27;100.00;100954.81;7387144;19;20077;-78
2022/08/31 01:22:56;;;;;;;;;;;;;;;18.28;100.00;100949.97;7387380;19;20022;-78
2022/08/31 01:25:22;;;;;;;0.57;0.30;;;;;;;18.23;100.00;100959.16;7386212;19;19919;-78
2022/08/31 01:27:49;;;;;;;0.30;0.30;;;;;;;18.52;100.00;100958.84;7386078;19;20392;-79
2022/08/31 01:30:22;;;;;;;0.80;0.63;;;;;;;17.94;100.00;100958.16;7386698;19;20022;-79
2022/08/31 01:32:48;;;;;;;0.57;0.52;;;;;;;17.85;100.00;100957.56;7384797;19;20472;-78
2022/08/31 01:35:15;;;;;;;1.80;0.40;;;;;;;18.27;100.00;100954.03;7384126;19;20014;-79
2022/08/31 01:37:42;;;;;;;0.43;0.35;;;;;;;18.27;100.00;100960.47;7381848;19;20022;-78
2022/08/31 01:40:09;;;;;;;0.95;0.60;;;;;;;18.42;100.00;100949.00;7383637;19;20032;-78
2022/08/31 01:42:35;;;;;;;1.45;0.60;;;;;;;18.36;100.00;100948.22;7384242;19;20019;-78
2022/08/31 01:45:03;;;;;;;0.85;0.47;;;;;;;18.27;100.00;100956.88;7384149;19;20027;-79
2022/08/31 01:47:29;;;;;;;0.88;0.68;;;;;;;18.10;100.00;100945.47;7381516;19;20014;-80
2022/08/31 01:49:55;;;;;;;1.17;0.73;;;;;;;18.11;100.00;100947.78;7385651;19;20018;-78
2022/08/31 01:52:22;;;;;;;1.17;1.05;;;;;;;18.08;100.00;100943.13;7383755;19;20021;-79
2022/08/31 01:54:48;;;;;;;2.22;0.30;;;;;;;18.01;100.00;100943.63;7382253;19;20033;-78
2022/08/31 01:57:14;;;;;;;5.43;1.10;;;;;;;17.96;100.00;100944.34;7387603;19;20015;-79
2022/08/31 02:00:13;;;;;;;1.20;0.50;;;;;;;17.99;100.00;100946.16;7383490;19;20048;-79
2022/08/31 02:02:44;;;;;;;0.93;0.60;;;;;;;17.88;100.00;100946.06;7386841;19;20025;-79
2022/08/31 02:05:13;;;;;;;0.93;0.85;;;;;;;17.43;100.00;100949.72;7390741;19;20007;-78
2022/08/31 02:07:40;;;;;;;0.85;0.30;;;;;;;17.66;100.00;100950.72;7388115;19;20015;-79
2022/08/31 02:10:06;;;;;;;0.63;0.50;;;;;;;17.78;100.00;100947.50;7391520;19;20011;-78
2022/08/31 02:12:34;;;;;;;3.10;0.90;;;;;;;17.87;100.00;100957.81;7389772;19;20018;-80
2022/08/31 02:15:00;;;;;;;6.28;0.88;;;;;;;17.97;100.00;100960.00;7390419;19;20033;-80
2022/08/31 02:17:26;;;;;;;1.20;0.60;;;;;;;17.76;100.00;100943.66;7388457;19;20018;-79
2022/08/31 02:19:52;;;;;;;1.58;0.98;;;;;;;17.43;100.00;100938.44;7390724;19;20015;-79
2022/08/31 02:22:18;;;;;;;2.65;0.50;;;;;;;17.51;100.00;100944.44;7391284;19;20029;-79
2022/08/31 02:24:45;;;;;;;4.70;1.33;;;;;;;17.50;100.00;100943.66;7391888;19;20010;-79
2022/08/31 02:27:11;;;;;;;1.17;0.90;;;;;;;17.43;100.00;100941.25;7394392;19;20021;-79
2022/08/31 02:29:37;;;;;;;2.55;1.17;;;;;;;17.45;100.00;100947.19;7389762;19;20018;-79
2022/08/31 02:32:03;;;;;;;1.45;0.45;;;;;;;17.35;100.00;100937.31;7390508;19;20014;-78
2022/08/31 02:34:29;;;;;;;1.50;0.80;;;;;;;17.59;100.00;100932.22;7390498;19;20036;-79
2022/08/31 02:36:56;;;;;;;1.10;0.73;;;;;;;17.62;100.00;100928.41;7390679;19;20767;-79
2022/08/31 02:39:22;;;;;;;1.20;0.70;;;;;;;17.57;100.00;100931.94;7387970;19;20068;-80
2022/08/31 02:41:49;;;;;;;1.80;0.98;;;;;;;17.58;100.00;100933.50;7388194;19;20031;-80
2022/08/31 02:44:16;;;;;;;2.42;0.85;;;;;;;17.59;100.00;100923.78;7388100;19;20018;-79
2022/08/31 02:46:44;;;;;;;2.22;0.90;;;;;;;17.54;100.00;100935.00;7390475;19;20014;-78
2022/08/31 02:49:32;;;;;;;4.03;0.93;;;;;;;17.40;100.00;100934.59;7391378;19;20018;-78
2022/08/31 02:51:59;;;;;;;6.57;1.13;;;;;;;17.40;100.00;100930.97;7391371;19;20022;-79
2022/08/31 02:54:25;;;;;;;1.58;1.15;;;;;;;17.39;100.00;100929.41;7390406;19;20022;-79
2022/08/31 02:56:52;;;;;;;3.15;1.42;;;;;;;17.28;100.00;100932.16;7391825;19;20097;-78
2022/08/31 02:59:19;;;;;;;3.55;1.73;;;;;;;17.30;100.00;100930.38;7386577;19;20069;-78
2022/08/31 03:01:47;;;;;;;2.33;0.98;;;;;;;17.28;100.00;100923.72;7387070;19;20014;-79
2022/08/31 03:04:15;;;;;;;1.70;0.70;;;;;;;17.17;100.00;100920.75;7386650;19;20346;-78
2022/08/31 03:06:41;;;;;;;1.48;1.15;;;;;;;17.27;100.00;100925.75;7390096;19;20014;-78
2022/08/31 03:09:07;;;;;;;1.50;0.82;;;;;;;17.69;100.00;100924.38;7388720;19;20365;-79
2022/08/31 03:11:34;;;;;;;5.68;0.50;;;;;;;17.92;100.00;100920.47;7389568;19;20074;-79
2022/08/31 03:14:00;;;;;;;3.80;0.73;;;;;;;18.08;100.00;100925.47;7388775;19;20010;-78
2022/08/31 03:16:26;;;;;;;15.48;1.60;;;;;;;18.22;100.00;100930.16;7390874;19;20022;-78
2022/08/31 03:18:52;;;;;;;2.05;1.27;;;;;;;18.58;100.00;100934.28;7387652;19;20078;-78
2022/08/31 03:21:19;;;;;;;3.17;1.38;;;;;;;18.78;100.00;100925.63;7388366;19;20035;-78
2022/08/31 03:23:45;;;;;;;6.75;1.42;;;;;;;18.82;100.00;100934.63;7386521;19;20026;-78
2022/08/31 03:26:11;;;;;;;1.95;1.20;;;;;;;18.99;100.00;100918.56;7388850;19;20671;-79
2022/08/31 03:28:38;;;;;;;1.88;0.95;;;;;;;19.11;100.00;100934.25;7386900;19;20019;-79
2022/08/31 03:31:31;;;;;;;1.70;0.70;;;;;;;19.03;100.00;100930.38;7386859;19;20022;-79
2022/08/31 03:33:58;;;;;;;2.70;0.77;;;;;;;19.18;100.00;100930.94;7387019;19;20464;-80
2022/08/31 03:36:24;;;;;;;1.90;0.77;;;;;;;19.56;100.00;100921.78;7389088;19;20021;-81
2022/08/31 03:38:51;;;;;;;4.13;1.25;;;;;;;20.89;100.00;100921.59;7387091;19;20010;-79
2022/08/31 03:41:22;;;;;;;2.13;1.67;;;;;;;21.66;100.00;100922.44;7387093;19;20508;-79
2022/08/31 03:43:49;;;;;;;1.65;1.10;;;;;;;19.84;100.00;100927.44;7386057;19;20018;-79
2022/08/31 03:46:17;;;;;;;2.00;0.93;;;;;;;18.83;100.00;100928.50;7386941;19;20021;-79
2022/08/31 03:48:46;;;;;;;0.80;0.57;;;;;;;18.12;100.00;100923.97;7385168;19;20081;-79
2022/08/31 03:51:14;;;;;;;1.42;1.33;;;;;;;18.44;100.00;100923.91;7388276;19;20018;-79
2022/08/31 03:53:41;;;;;;;1.85;1.40;;;;;;;18.32;100.00;100927.94;7388212;19;20019;-79
2022/08/31 03:56:08;;;;;;;1.92;0.57;;;;;;;18.69;100.00;100929.44;7388371;19;20089;-79
2022/08/31 03:58:37;;;;;;;1.65;0.68;;;;;;;18.08;100.00;100931.13;7385882;19;20033;-79
2022/08/31 04:01:05;;;;;;;8.18;0.98;;;;;;;16.85;100.00;100927.56;7384816;19;20018;-79
2022/08/31 04:04:06;;;;;;;1.30;0.65;;;;;;;17.70;100.00;100926.69;7382254;19;20015;-79
2022/08/31 04:06:48;;;;;;;0.40;0.30;;;;;;;18.29;100.00;100923.28;7388939;19;20522;-79
2022/08/31 04:09:33;;;;;;;1.33;0.95;;;;;;;16.13;100.00;100924.50;7388592;19;20015;-79
2022/08/31 04:12:18;;;;;;;4.88;0.70;;;;;;;16.46;100.00;100924.19;7387625;19;20022;-79
2022/08/31 04:15:08;;;;;;;;;;;;;;;16.30;100.00;100933.16;7387086;19;20022;-79
2022/08/31 04:17:53;;;;;;;7.18;1.00;;;;;;;16.65;100.00;100925.50;7387182;19;19984;-79
2022/08/31 04:20:48;;;;;;;5.05;0.98;;;;;;;16.66;100.00;100930.63;7386140;19;20015;-79
2022/08/31 04:23:15;;;;;;;4.75;1.40;;;;;;;17.40;100.00;100919.72;7384562;19;20018;-79
2022/08/31 04:25:50;;;;;;;4.70;0.90;;;;;;;17.56;100.00;100924.78;7385636;19;20487;-79
2022/08/31 04:28:16;;;;;;;2.28;1.02;;;;;;;17.77;100.00;100929.06;7387735;19;20807;-79
2022/08/31 04:30:42;;;;;;;2.83;1.13;;;;;;;17.42;100.00;100925.63;7385367;19;20115;-79
2022/08/31 04:33:11;;;;;;;1.63;0.75;;;;;;;17.93;100.00;100927.66;7386421;19;20034;-78
2022/08/31 04:35:40;;;;;;;1.85;0.75;;;;;;;17.03;100.00;100922.41;7386869;19;20056;-79
2022/08/31 04:38:06;;;;;;;2.50;1.08;;;;;;;17.61;100.00;100926.84;7386651;19;20010;-79
2022/08/31 04:40:36;;;;;;;3.55;1.02;;;;;;;19.34;100.00;100924.56;7385922;19;20019;-79
2022/08/31 04:43:02;;;;;;;2.95;0.70;;;;;;;19.12;100.00;100927.31;7384015;19;20018;-79
2022/08/31 04:45:28;;;;;;;1.80;1.02;;;;;;;19.16;100.00;100930.66;7386575;19;20014;-79
2022/08/31 04:47:54;;;;;;;2.42;1.30;;;;;;;18.22;100.00;100929.38;7386784;19;20022;-79
2022/08/31 04:50:21;;;;;;;3.70;0.93;;;;;;;18.64;100.00;100932.25;7386634;19;20015;-79
2022/08/31 04:53:07;;;;;;;1.30;0.57;;;;;;;18.75;100.00;100926.66;7391062;19;20006;-79
2022/08/31 04:55:38;;;;;;;1.83;0.95;;;;;;;18.86;100.00;100938.00;7386012;19;20105;-79
2022/08/31 04:58:05;;;;;;;12.35;1.60;;;;;;;19.15;100.00;100929.13;7384203;19;20015;-79
2022/08/31 05:00:31;;;;;;;1.50;1.02;;;;;;;20.15;100.00;100926.41;7381907;19;20024;-79
2022/08/31 05:03:17;;;;;;;2.08;1.00;;;;;;;21.32;100.00;100929.66;7385035;19;20476;-79
2022/08/31 05:05:45;;;;;;;2.30;0.85;;;;;;;21.72;100.00;100928.88;7384488;19;20022;-79
2022/08/31 05:08:12;;;;;;;1.08;0.82;;;;;;;21.80;100.00;100935.50;7384938;19;20041;-79
2022/08/31 05:10:40;;;;;;;4.30;1.13;;;;;;;22.13;100.00;100943.00;7385837;19;20038;-78
2022/08/31 05:13:06;;;;;;;2.25;0.82;;;;;;;22.08;100.00;100944.59;7384978;19;20014;-78
2022/08/31 05:15:32;;;;;;;2.33;1.27;;;;;;;22.15;100.00;100949.69;7384949;19;20346;-78
2022/08/31 05:17:59;;;;;;;15.00;1.15;;;;;;;21.86;100.00;100933.41;7381398;19;20039;-78
2022/08/31 05:20:26;;;;;;;2.53;1.00;;;;;;;22.18;100.00;100937.25;7383137;19;20015;-77
2022/08/31 05:22:52;;;;;;;0.52;0.38;;;;;;;22.14;100.00;100947.34;7382038;19;20025;-78
2022/08/31 05:25:18;;;;;;;8.65;1.13;;;;;;;18.63;100.00;100947.63;7383035;19;20011;-79
2022/08/31 05:27:44;;;;;;;0.80;0.65;;;;;;;17.99;100.00;100943.34;7382951;19;20106;-79
2022/08/31 05:30:12;;;;;;;3.45;0.70;;;;;;;17.83;100.00;100948.81;7385011;19;20007;-78
2022/08/31 05:32:59;;;;;;;3.25;0.98;;;;;;;18.40;100.00;100958.00;7386141;19;20018;-79
2022/08/31 05:35:25;;;;;;;4.03;0.55;;;;;;;17.89;100.00;100958.88;7385071;19;20618;-78
2022/08/31 05:37:52;;;;;;;3.20;0.88;;;;;;;17.72;100.00;100955.13;7385841;19;20036;-79
2022/08/31 05:40:19;;;;;;;2.22;0.77;;;;;;;17.62;100.00;100950.97;7389990;19;20029;-79
2022/08/31 05:42:45;;;;;;;1.75;0.57;;;;;;;17.54;100.00;100955.50;7390844;19;20018;-79
2022/08/31 05:45:12;;;;;;;1.92;0.70;;;;;;;17.65;100.00;100966.84;7389440;19;20613;-78
2022/08/31 05:47:40;;;;;;;4.30;1.40;;;;;;;19.14;100.00;100961.47;7389164;19;20021;-78
2022/08/31 05:50:06;;;;;;;8.80;0.95;;;;;;;19.54;100.00;100969.56;7391306;19;20018;-79
2022/08/31 05:52:33;;;;;;;2.78;1.05;;;;;;;20.41;100.00;100966.53;7394631;19;20368;-79
2022/08/31 05:54:59;;;;;;;2.00;1.05;;;;;;;21.45;100.00;100966.66;7390533;19;20010;-80
2022/08/31 05:57:26;;;;;;;3.28;0.85;;;;;;;22.04;100.00;100960.34;7390356;19;20126;-79
2022/08/31 05:59:52;;;;;;;8.85;1.08;;;;;;;21.98;100.00;100951.91;7390854;19;20503;-79
2022/08/31 06:02:18;;;;;;;2.58;1.27;;;;;;;21.98;100.00;100963.25;7391322;19;20029;-79
2022/08/31 06:04:45;;;;;;;2.90;1.42;;;;;;;19.02;100.00;100968.34;7390396;19;20357;-80
2022/08/31 06:07:11;;;;;;;3.20;0.75;;;;;;;19.34;100.00;100963.34;7392628;19;20014;-79
2022/08/31 06:09:43;;;;;;;1.20;0.82;;;;;;;19.39;100.00;100962.59;7391172;19;20010;-79
2022/08/31 06:12:10;;;;;;;9.57;1.38;;;;;;;18.46;100.00;100960.88;7388764;19;20022;-80
2022/08/31 06:14:40;;;;;;;3.50;1.25;;;;;;;19.53;100.00;100956.69;7389811;19;20353;-79
2022/08/31 06:17:06;;;;;;;2.97;1.20;;;;;;;18.84;100.00;100961.06;7391111;19;20054;-79
2022/08/31 06:19:33;;;;;;;2.13;1.27;;;;;;;20.05;100.00;100950.59;7388142;19;20015;-79
2022/08/31 06:21:59;;;;;;;1.00;0.47;;;;;;;20.60;100.00;100944.88;7388009;19;20019;-79
2022/08/31 06:24:26;;;;;;;4.47;1.17;;;;;;;21.23;100.00;100949.78;7387379;19;21192;-79
2022/08/31 06:26:56;;;;;;;3.30;1.27;;;;;;;20.99;100.00;100947.56;7391253;19;20028;-79
2022/08/31 06:29:30;;;;;;;5.55;1.35;;;;;;;20.42;100.00;100953.94;7388951;19;20014;-79
2022/08/31 06:31:59;;;;;;;1.65;1.20;;;;;;;20.85;100.00;100960.75;7388068;19;20018;-79
2022/08/31 06:34:27;;;;;;;2.15;1.05;;;;;;;19.97;100.00;100960.84;7390011;19;20038;-79
2022/08/31 06:37:10;;;;;;;3.35;1.20;;;;;;;21.45;100.00;100966.66;7392906;19;20385;-79
2022/08/31 06:40:04;;;;;;;4.95;2.38;;;;;;;19.87;100.00;100965.22;7388131;19;20022;-80
2022/08/31 06:42:46;;;;;;;5.15;1.52;;;;;;;18.90;100.00;100966.75;7386915;19;20010;-80
2022/08/31 06:45:46;;;;;;;2.40;1.13;;;;;;;18.52;100.00;100972.94;7388150;19;20021;-79
2022/08/31 06:48:30;;;;;;;1.38;0.98;;;;;;;18.22;100.00;100971.69;7388936;19;20014;-79
2022/08/31 06:50:57;;;;;;;2.42;0.70;;;;;;;18.03;100.00;100969.25;7389910;19;20019;-79
2022/08/31 06:53:25;;;;;;;1.90;0.82;;;;;;;18.20;100.00;100966.56;7389709;19;20602;-80
2022/08/31 06:56:06;;;;;;;2.17;0.85;;;;;;;18.65;100.00;100967.63;7390337;19;20046;-80
2022/08/31 06:58:52;;;;;;;4.50;1.50;;;;;;;20.47;100.00;100958.78;7387177;19;20022;-80
2022/08/31 07:01:38;;;;;;;7.45;1.77;;;;;;;19.97;100.00;100972.16;7387657;19;20014;-79
2022/08/31 07:04:17;;;;;;;1.05;0.60;;;;;;;18.64;100.00;100980.22;7387211;19;20018;-80
2022/08/31 07:06:44;;;;;;;1.23;0.45;;;;;;;18.39;100.00;100972.56;7389554;19;20033;-80
2022/08/31 07:09:16;;;;;;;1.55;0.77;;;;;;;18.24;100.00;100978.38;7388852;19;20472;-79
2022/08/31 07:11:45;;;;;;;1.65;1.05;;;;;;;18.37;100.00;100970.25;7393501;19;20038;-80
2022/08/31 07:14:15;;;;;;;5.22;1.05;;;;;;;19.07;100.00;100964.78;7389085;19;20038;-79
2022/08/31 07:16:43;;;;;;;4.50;0.80;;;;;;;20.85;100.00;100960.75;7390020;19;20015;-79
2022/08/31 07:19:11;;;;;;;3.03;1.27;;;;;;;20.99;100.00;100959.66;7386165;19;20014;-79
2022/08/31 07:21:45;;;;;;;1.10;0.88;;;;;;;21.13;100.00;100961.44;7387646;19;20216;-79
2022/08/31 07:24:14;;;;;;;4.20;0.88;;;;;;;20.76;100.00;100963.88;7388590;19;20389;-79
2022/08/31 07:26:47;;;;;;;2.70;0.75;;;;;;;20.52;100.00;100972.16;7386746;19;20044;-80
2022/08/31 07:29:19;;;;;;;2.47;1.08;;;;;;;20.24;100.00;100974.25;7389948;19;20003;-80
2022/08/31 07:31:47;;;;;;;1.17;0.80;;;;;;;19.50;100.00;100980.34;7390936;19;20503;-80
2022/08/31 07:34:20;;;;;;;1.77;1.27;;;;;;;19.82;100.00;100977.31;7391220;19;20090;-81
2022/08/31 07:42:43;;;;;;;10.15;1.13;;;;;;;19.75;100.00;100981.41;7385248;19;20663;-80
2022/08/31 07:45:18;;;;;;;2.55;0.70;;;;;;;21.07;100.00;100979.75;7385690;19;20065;-81
2022/08/31 07:47:45;;;;;;;6.10;0.85;;;;;;;20.32;100.00;100981.72;7385755;19;20022;-81
2022/08/31 07:50:15;;;;;;;1.73;0.95;;;;;;;19.50;100.00;100985.22;7386883;19;20476;-80
2022/08/31 07:52:57;;;;;;;2.50;0.55;;;;;;;19.20;100.00;100987.69;7390680;19;20093;-81
2022/08/31 07:55:54;;;;;;;3.08;1.42;;;;;;;19.29;100.00;100984.63;7387659;19;20043;-80
2022/08/31 07:58:38;;;;;;;5.47;1.02;;;;;;;15.88;100.00;100998.16;7385703;19;20029;-80
2022/08/31 08:01:05;;;;;;;2.45;0.47;;;;;;;15.37;100.00;101008.91;7382852;19;20024;-78
2022/08/31 08:03:32;;;;;;;2.75;1.17;;;;;;;16.26;100.00;101012.09;7385952;19;20416;-78
2022/08/31 08:06:34;;;;;;;3.50;1.38;;;;;;;17.32;100.00;101008.72;7386290;19;20054;-78
2022/08/31 08:09:14;;;;;;;0.93;0.85;;;;;;;17.57;100.00;101005.19;7387616;19;20019;-78
2022/08/31 08:12:05;;;;;;;3.47;1.13;;;;;;;18.15;100.00;100998.28;7388538;19;20015;-78
2022/08/31 08:14:43;;;;;;;2.53;0.88;;;;;;;17.93;100.00;101001.69;7387932;19;20021;-78
2022/08/31 08:17:22;;;;;;;3.67;1.70;;;;;;;18.86;100.00;101002.94;7388722;19;20019;-77
2022/08/31 08:20:00;;;;;;;10.70;1.17;;;;;;;18.66;100.00;101003.06;7385890;19;20018;-78
2022/08/31 08:22:26;;;;;;;3.63;1.33;;;;;;;18.35;100.00;101001.03;7385716;19;20011;-77
2022/08/31 08:25:33;;;;;;;3.97;0.70;;;;;;;17.86;100.00;100999.34;7388128;19;20018;-77
2022/08/31 08:28:27;;;;;;;1.65;0.82;;;;;;;18.37;100.00;101006.94;7387242;19;21109;-78
2022/08/31 08:30:59;;;;;;;1.85;0.82;;;;;;;18.72;100.00;101003.88;7386965;19;20023;-78
2022/08/31 08:33:27;;;;;;;1.55;0.95;;;;;;;18.84;100.00;101008.31;7385808;19;20019;-79
2022/08/31 08:35:56;;;;;;;0.80;0.70;;;;;;;18.96;100.00;101009.91;7386245;19;20015;-78
2022/08/31 08:38:24;;;;;;;3.53;1.45;;;;;;;19.02;100.00;101002.22;7383325;19;20018;-78
2022/08/31 08:40:50;;;;;;;4.32;0.85;;;;;;;19.32;100.00;100994.91;7385098;19;20043;-79
2022/08/31 08:43:21;;;;;;;1.17;0.60;;;;;;;19.18;100.00;100998.72;7384214;19;20031;-78
2022/08/31 08:45:51;;;;;;;4.88;1.10;;;;;;;19.08;100.00;101000.19;7385385;19;20381;-78
2022/08/31 08:48:25;;;;;;;0.57;0.38;;;;;;;19.22;100.00;101004.88;7385460;19;20030;-79
2022/08/31 08:50:52;;;;;;;1.65;0.85;;;;;;;19.51;100.00;101004.47;7386364;19;20026;-79
2022/08/31 08:53:29;;;;;;;2.05;0.80;;;;;;;20.28;100.00;101008.72;7385292;19;20010;-79
2022/08/31 08:56:19;;;;;;;2.38;0.82;;;;;;;20.89;100.00;100995.25;7386688;19;20018;-79
2022/08/31 08:58:45;;;;;;;2.92;0.50;;;;;;;21.94;100.00;100999.63;7382687;19;20010;-79
2022/08/31 09:01:23;;;;;;;3.25;0.95;;;;;;;22.66;100.00;101003.91;7382679;19;20014;-79
2022/08/31 09:04:17;;;;;;;1.60;1.15;;;;;;;23.90;100.00;101001.31;7382740;19;20014;-79
2022/08/31 09:07:29;;;;;;;2.95;0.70;;;;;;;24.62;100.00;101005.03;7384086;19;20015;-79
2022/08/31 09:10:20;;;;;;;2.25;0.55;;;;;;;24.94;100.00;101005.72;7384634;19;20031;-79
2022/08/31 09:13:02;;;;;;;2.42;1.13;;;;;;;24.82;100.00;100999.47;7390737;19;20017;-78
2022/08/31 09:15:35;;;;;;;2.40;0.68;;;;;;;25.02;100.00;101003.75;7392782;19;20095;-78
2022/08/31 09:18:29;;;;;;;1.27;0.63;;;;;;;25.05;100.00;101011.22;7388239;19;20018;-78
2022/08/31 09:21:18;;;;;;;3.13;0.68;;;;;;;25.13;100.00;101009.22;7390605;19;20406;-78
2022/08/31 09:24:00;;;;;;;0.55;0.55;;;;;;;25.47;100.00;101004.38;7389774;19;20043;-78
2022/08/31 09:26:32;;;;;;;1.00;0.88;;;;;;;25.93;100.00;100991.38;7392062;19;20108;-77
2022/08/31 09:29:12;;;;;;;2.22;0.43;;;;;;;26.27;100.00;100982.75;7394504;19;20032;-78
2022/08/31 09:31:40;;;;;;;2.88;1.02;;;;;;;24.18;100.00;101000.09;7392876;19;20118;-79
2022/08/31 09:34:30;;;;;;;1.30;0.50;;;;;;;23.58;100.00;100999.72;7392110;19;20078;-79
2022/08/31 09:37:19;;;;;;;1.27;0.45;;;;;;;23.78;100.00;100997.06;7391939;19;20476;-78
2022/08/31 09:39:48;;;;;;;1.25;0.40;;;;;;;24.88;100.00;100987.19;7387895;19;20376;-79
2022/08/31 09:42:30;;;;;;;2.45;0.35;;;;;;;23.91;100.00;100994.28;7390204;19;20382;-80
2022/08/31 09:45:03;;;;;;;1.63;0.82;;;;;;;25.36;100.00;100998.13;7389643;19;20015;-78
2022/08/31 09:47:47;;;;;;;0.60;0.40;;;;;;;23.92;100.00;101001.53;7388678;19;20437;-81
2022/08/31 09:50:23;;;;;;;1.38;1.00;;;;;;;23.97;100.00;101000.66;7389559;19;20015;-77
2022/08/31 09:55:34;;;;;;;2.30;0.95;;;;;;;23.08;100.00;101003.19;7390870;19;20010;-79
2022/08/31 09:58:03;;;;;;;0.50;0.30;;;;;;;23.14;100.00;100998.19;7389159;19;20051;-78
2022/08/31 10:00:35;;;;;;;1.27;1.17;;;;;;;23.19;100.00;100994.53;7388428;19;20006;-78
2022/08/31 10:03:10;;;;;;;1.10;0.63;;;;;;;23.41;100.00;100990.66;7388490;19;20049;-78
2022/08/31 10:05:43;;;;;;;4.40;1.20;;;;;;;23.71;100.00;100991.25;7391491;19;20014;-78
2022/08/31 10:08:26;;;;;;;0.73;0.40;;;;;;;23.87;100.00;100999.53;7393184;19;20029;-79
2022/08/31 10:11:02;;;;;;;2.63;1.15;;;;;;;24.27;100.00;100994.78;7391721;19;20049;-78
2022/08/31 10:13:40;;;;;;;0.90;0.38;;;;;;;24.63;100.00;100986.59;7391909;19;20021;-78
2022/08/31 10:16:29;;;;;;;4.07;0.50;;;;;;;21.50;100.00;100994.22;7393687;19;20038;-79
2022/08/31 10:19:03;;;;;;;0.47;0.13;;;;;;;20.15;100.00;100995.06;7389622;19;20010;-79
2022/08/31 10:21:42;;;;;;;0.75;0.45;;;;;;;19.99;100.00;101003.56;7390060;19;20035;-78
2022/08/31 10:24:32;;;;;;;1.17;0.57;;;;;;;19.18;100.00;100997.94;7386876;19;20511;-78
2022/08/31 10:27:07;;;;;;;0.40;0.20;;;;;;;18.93;100.00;100999.59;7391236;19;20022;-79
2022/08/31 10:29:44;;;;;;;3.85;2.00;;;;;;;19.29;100.00;100990.28;7389603;19;20098;-79
2022/08/31 10:32:26;;;;;;;2.22;0.60;;;;;;;19.53;100.00;100996.25;7388998;19;20393;-77
2022/08/31 10:35:19;;;;;;;2.17;0.68;;;;;;;19.30;100.00;100989.00;7391159;19;20498;-79
2022/08/31 10:38:07;;;;;;;0.43;0.28;;;;;;;19.37;100.00;100982.88;7389455;19;20426;-78
2022/08/31 10:40:48;;;;;;;3.50;0.30;;;;;;;19.97;100.00;100983.47;7392163;19;20051;-78
2022/08/31 10:43:20;;;;;;;0.30;0.30;;;;;;;20.18;100.00;100982.72;7389744;19;20014;-78
2022/08/31 10:45:52;;;;;;;1.77;0.40;;;;;;;20.40;100.00;100982.72;7392398;19;20405;-80
2022/08/31 10:48:23;;;;;;;1.33;0.30;;;;;;;20.04;100.00;100974.50;7389256;19;20086;-78
2022/08/31 10:51:21;;;;;;;2.75;0.60;;;;;;;21.23;100.00;100966.78;7390692;19;20499;-78
2022/08/31 10:54:01;;;;;;;0.77;0.65;;;;;;;20.48;100.00;100965.22;7390422;19;20014;-78
2022/08/31 10:56:58;;;;;;;1.00;0.43;;;;;;;20.21;100.00;100966.78;7390244;19;20503;-79
2022/08/31 10:59:36;;;;;;;1.10;0.30;;;;;;;20.40;100.00;100962.91;7389216;19;20042;-78
2022/08/31 11:02:40;;;;;;;0.82;0.70;;;;;;;20.34;100.00;100961.38;7388136;19;20022;-78
2022/08/31 11:05:32;;;;;;;0.20;0.20;;;;;;;20.23;100.00;100955.72;7390722;19;20029;-78
2022/08/31 11:08:23;;;;;;;0.57;0.20;;;;;;;21.24;100.00;100962.66;7388852;19;20483;-79
2022/08/31 11:10:51;;;;;;;0.20;0.10;;;;;;;21.51;100.00;100954.00;7388842;19;20035;-78
2022/08/31 11:13:30;;;;;;;0.85;0.30;;;;;;;21.49;100.00;100950.94;7390036;19;20045;-78
2022/08/31 11:16:20;;;;;;;3.05;0.25;;;;;;;21.84;100.00;100947.34;7389518;19;20022;-78
2022/08/31 11:19:24;;;;;;;0.85;0.20;;;;;;;21.30;100.00;100949.25;7387933;19;20025;-79
2022/08/31 11:21:58;;;;;;;1.55;0.55;;;;;;;22.52;100.00;100937.69;7390203;19;20041;-78
2022/08/31 11:24:33;;;;;;;2.13;0.70;;;;;;;22.22;100.00;100949.06;7388257;19;20015;-78
2022/08/31 11:27:10;;;;;;;1.17;0.30;;;;;;;21.72;100.00;100934.53;7388145;19;20010;-78
2022/08/31 11:29:45;;;;;;;0.38;0.22;;;;;;;21.94;100.00;100934.38;7388745;19;20033;-78
2022/08/31 11:32:20;;;;;;;1.00;0.20;;;;;;;22.05;100.00;100931.44;7388164;19;20757;-79
2022/08/31 11:34:52;;;;;;;2.47;0.20;;;;;;;22.10;100.00;100930.63;7384963;19;20022;-79
2022/08/31 11:37:55;;;;;;;1.38;0.40;;;;;;;22.10;100.00;100918.50;7390064;19;20790;-79
2022/08/31 11:40:40;;;;;;;1.25;0.32;;;;;;;22.22;100.00;100919.94;7385784;19;20025;-78
2022/08/31 11:43:12;;;;;;;0.77;0.30;;;;;;;22.59;100.00;100909.50;7385040;19;20039;-79
2022/08/31 11:45:42;;;;;;;0.10;0.10;;;;;;;22.54;100.00;100912.38;7387083;19;20544;-78
2022/08/31 11:48:50;;;;;;;0.10;0.10;;;;;;;22.75;100.00;100915.50;7387797;19;20018;-78
2022/08/31 11:51:37;;;;;;;3.63;0.35;;;;;;;22.93;100.00;100909.88;7388359;19;20485;-79
2022/08/31 11:54:11;;;;;;;1.35;0.30;;;;;;;23.50;100.00;100902.88;7389153;19;20018;-91
2022/08/31 11:56:40;;;;;;;3.40;0.40;;;;;;;24.24;100.00;100898.28;7389745;19;20014;-81
2022/08/31 11:59:32;;;;;;;0.13;0.10;;;;;;;23.70;100.00;100902.28;7396928;19;20022;-86